Time;durP1;ratioP1;P1;durP2;ratioP2;P2;SDS_P1;SDS_P2;PMS_P1;PMS_P2;Temp;Humidity;BMP_temperature;BMP_pressure;BME280_temperature;BME280_humidity;BME280_pressure;Samples;Min_cycle;Max_cycle;Signal;HPM_P1;HPM_P2
2022/10/25 00:00:49;;;;;;;;;;;13.10;99.90;;;;;;6306270;22;20340;-72
2022/10/25 00:03:15;;;;;;;;;;;13.00;99.90;;;;;;6307882;22;19923;-63
2022/10/25 00:05:40;;;;;;;;;;;13.10;99.90;;;;;;6308264;22;19922;-63
2022/10/25 00:08:08;;;;;;;;;;;13.00;99.90;;;;;;6308292;22;19946;-63
2022/10/25 00:10:34;;;;;;;;;;;13.00;99.90;;;;;;6308479;22;19914;-63
2022/10/25 00:12:59;;;;;;;;;;;13.00;99.90;;;;;;6307661;22;19919;-63
2022/10/25 00:15:25;;;;;;;;;;;13.00;99.90;;;;;;6307953;22;19915;-63
2022/10/25 00:17:51;;;;;;;;;;;13.00;99.90;;;;;;6280691;22;19986;-63
2022/10/25 00:20:18;;;;;;;;;;;13.00;99.90;;;;;;6308112;22;19918;-63
2022/10/25 00:22:44;;;;;;;;;;;13.00;99.90;;;;;;6280530;22;19919;-63
2022/10/25 00:25:12;;;;;;;;;;;13.10;99.90;;;;;;6308388;22;19915;-63
2022/10/25 00:27:37;;;;;;;;;;;13.00;99.90;;;;;;6308002;22;19922;-63
2022/10/25 00:30:03;;;;;;;;;;;13.00;99.90;;;;;;6280600;22;19915;-63
2022/10/25 00:32:29;;;;;;;;;;;13.00;99.90;;;;;;6308330;22;19977;-63
2022/10/25 00:34:56;;;;;;;;;;;12.90;99.90;;;;;;6308316;22;19915;-63
2022/10/25 00:37:22;;;;;;;;;;;12.90;99.90;;;;;;6308185;22;19915;-63
2022/10/25 00:39:51;;;;;;;;;;;12.80;99.90;;;;;;6308275;22;19915;-63
2022/10/25 00:42:21;;;;;;;;;;;12.70;99.90;;;;;;6307725;22;19919;-63
2022/10/25 00:44:49;;;;;;;;;;;12.70;99.90;;;;;;6308070;22;19915;-63
2022/10/25 00:47:20;;;;;;;;;;;12.70;99.90;;;;;;6307810;22;19921;-63
2022/10/25 00:49:56;;;;;;;;;;;12.60;99.90;;;;;;6308019;22;19915;-63
2022/10/25 00:52:23;;;;;;;;;;;12.60;99.90;;;;;;6307796;22;19914;-63
2022/10/25 00:54:50;;;;;;;;;;;12.60;99.90;;;;;;6307931;22;19918;-63
2022/10/25 00:57:19;;;;;;;;;;;12.60;99.90;;;;;;6307851;22;19915;-63
2022/10/25 00:59:48;;;;;;;;;;;12.40;99.90;;;;;;6308316;22;20215;-63
2022/10/25 01:02:13;;;;;;;;;;;12.50;99.90;;;;;;6307788;22;19926;-63
2022/10/25 01:04:39;;;;;;;;;;;12.50;99.90;;;;;;6308429;22;19925;-63
2022/10/25 01:07:19;;;;;;;;;;;12.50;99.90;;;;;;6308246;22;19922;-63
2022/10/25 01:09:46;;;;;;;;;;;12.50;99.90;;;;;;6307100;22;19922;-63
2022/10/25 01:12:12;;;;;;;;;;;12.50;99.90;;;;;;6307408;22;20377;-63
2022/10/25 01:14:39;;;;;;;;;;;12.50;99.90;;;;;;6308154;22;19923;-63
2022/10/25 01:17:20;;;;;;;;;;;12.50;99.90;;;;;;6308024;22;20225;-63
2022/10/25 01:19:59;;;;;;;;;;;12.60;99.90;;;;;;6280391;22;19953;-63
2022/10/25 01:22:24;;;;;;;;;;;12.60;99.90;;;;;;6307912;22;20002;-63
2022/10/25 01:24:53;;;;;;;;;;;12.70;99.90;;;;;;6307050;22;19987;-63
2022/10/25 01:27:21;;;;;;;;;;;12.70;99.90;;;;;;6309841;22;19926;-63
2022/10/25 01:30:03;;;;;;;;;;;13.10;99.90;;;;;;6309789;22;19960;-63
2022/10/25 01:32:52;;;;;;;;;;;12.70;99.90;;;;;;6309560;22;19918;-63
2022/10/25 01:35:29;;;;;;;;;;;12.70;99.90;;;;;;6289194;22;19915;-63
2022/10/25 01:38:03;;;;;;;;;;;12.70;99.90;;;;;;6309370;22;19915;-63
2022/10/25 01:40:35;;;;;;;;;;;12.60;99.90;;;;;;6304093;22;20247;-63
2022/10/25 01:43:11;;;;;;;;;;;12.60;99.90;;;;;;6309795;22;20006;-63
2022/10/25 01:45:44;;;;;;;;;;;12.60;99.90;;;;;;6282451;22;19922;-63
2022/10/25 01:48:14;;;;;;;;;;;12.50;99.90;;;;;;6309656;22;19915;-63
2022/10/25 01:50:42;;;;;;;;;;;12.50;99.90;;;;;;6308494;22;19922;-63
2022/10/25 01:53:11;;;;;;;;;;;12.50;99.90;;;;;;6307971;22;19953;-63
2022/10/25 01:55:47;;;;;;;;;;;12.50;99.90;;;;;;6309591;22;19915;-63
2022/10/25 01:58:22;;;;;;;;;;;12.40;99.90;;;;;;6256478;22;19915;-63
2022/10/25 02:00:56;;;;;;;;;;;12.40;99.90;;;;;;6309084;22;19965;-63
2022/10/25 02:03:30;;;;;;;;;;;12.40;99.90;;;;;;6309671;22;19937;-63
2022/10/25 02:06:23;;;;;;;;;;;12.40;99.90;;;;;;6309528;22;19969;-63
2022/10/25 02:09:15;;;;;;;;;;;12.30;99.90;;;;;;6309605;22;19918;-63
2022/10/25 02:11:42;;;;;;;;;;;12.30;99.90;;;;;;6250493;22;19915;-64
2022/10/25 02:14:18;;;;;;;;;;;12.20;99.90;;;;;;6281774;22;20006;-63
2022/10/25 02:16:48;;;;;;;;;;;11.90;99.90;;;;;;6309039;22;19919;-63
2022/10/25 02:19:15;;;;;;;;;;;12.20;99.90;;;;;;6309023;22;19922;-63
2022/10/25 02:21:42;;;;;;;;;;;12.20;99.90;;;;;;6309175;22;20023;-63
2022/10/25 02:24:11;;;;;;;;;;;12.20;99.90;;;;;;6309388;22;19918;-63
2022/10/25 02:26:38;;;;;;;;;;;12.30;99.90;;;;;;6308939;22;19915;-63
2022/10/25 02:29:05;;;;;;;;;;;12.30;99.90;;;;;;6308822;22;20325;-63
2022/10/25 02:31:33;;;;;;;;;;;12.30;99.90;;;;;;6309283;22;19919;-63
2022/10/25 02:33:58;;;;;;;;;;;12.40;99.90;;;;;;6307078;22;19929;-63
2022/10/25 02:36:25;;;;;;;;;;;12.40;99.90;;;;;;6308797;22;19915;-63
2022/10/25 02:38:51;;;;;;;;;;;12.50;99.90;;;;;;6309218;22;19921;-63
2022/10/25 02:41:19;;;;;;;;;;;12.50;99.90;;;;;;6306806;22;19919;-62
2022/10/25 02:43:44;;;;;;;;;;;12.50;99.90;;;;;;6309080;22;19965;-63
2022/10/25 02:46:11;;;;;;;;;;;12.60;99.90;;;;;;6309057;22;19919;-63
2022/10/25 02:48:39;;;;;;;;;;;12.60;99.90;;;;;;6308534;22;19915;-63
2022/10/25 02:51:05;;;;;;;;;;;12.60;99.90;;;;;;6308572;22;19922;-63
2022/10/25 02:53:32;;;;;;;;;;;12.70;99.90;;;;;;6281224;22;19915;-63
2022/10/25 02:56:06;;;;;;;;;;;12.70;99.90;;;;;;6308842;22;20265;-63
2022/10/25 02:58:36;;;;;;;;;;;12.70;99.90;;;;;;6282254;22;20242;-63
2022/10/25 03:01:02;;;;;;;;;;;12.80;99.90;;;;;;6281067;22;19972;-63
2022/10/25 03:03:28;;;;;;;;;;;12.80;99.90;;;;;;6308915;22;20281;-63
2022/10/25 03:05:53;;;;;;;;;;;12.80;99.90;;;;;;6308899;22;19914;-63
2022/10/25 03:08:19;;;;;;;;;;;12.90;99.90;;;;;;6308510;22;19914;-63
2022/10/25 03:10:45;;;;;;;;;;;12.90;99.90;;;;;;6308867;22;19915;-63
2022/10/25 03:13:11;;;;;;;;;;;12.90;99.90;;;;;;6308437;22;19923;-63
2022/10/25 03:15:41;;;;;;;;;;;12.90;99.90;;;;;;6308418;22;20290;-63
2022/10/25 03:18:06;;;;;;;;;;;13.00;99.90;;;;;;6308740;22;19915;-63
2022/10/25 03:20:32;;;;;;;;;;;12.90;99.90;;;;;;6308781;22;20370;-63
2022/10/25 03:23:01;;;;;;;;;;;13.00;99.90;;;;;;6308417;22;19994;-63
2022/10/25 03:25:27;;;;;;;;;;;13.00;99.90;;;;;;6308726;22;19953;-63
2022/10/25 03:27:52;;;;;;;;;;;12.90;99.90;;;;;;6281071;22;19915;-63
2022/10/25 03:30:18;;;;;;;;;;;13.00;99.90;;;;;;6308203;22;19919;-63
2022/10/25 03:32:49;;;;;;;;;;;13.00;99.90;;;;;;6308367;22;19985;-63
2022/10/25 03:35:14;;;;;;;;;;;13.00;99.90;;;;;;6280902;22;19915;-63
2022/10/25 03:37:40;;;;;;;;;;;12.90;99.90;;;;;;6255382;22;19915;-63
2022/10/25 03:40:08;;;;;;;;;;;13.00;99.90;;;;;;6306905;22;20029;-63
2022/10/25 03:42:33;;;;;;;;;;;13.00;99.90;;;;;;6308096;22;19919;-63
2022/10/25 03:44:59;;;;;;;;;;;13.00;99.90;;;;;;6280916;22;19915;-63
2022/10/25 03:47:24;;;;;;;;;;;13.00;99.90;;;;;;6308199;22;19915;-63
2022/10/25 03:49:50;;;;;;;;;;;13.00;99.90;;;;;;6308565;22;19929;-63
2022/10/25 03:52:16;;;;;;;;;;;13.00;99.90;;;;;;6308139;22;19994;-63
2022/10/25 03:54:42;;;;;;;;;;;13.10;99.90;;;;;;6281203;22;19915;-63
2022/10/25 03:57:07;;;;;;;;;;;13.00;99.90;;;;;;6308490;22;20245;-63
2022/10/25 03:59:34;;;;;;;;;;;13.10;99.90;;;;;;6281070;22;19915;-63
2022/10/25 04:02:00;;;;;;;;;;;13.00;99.90;;;;;;6308074;22;19919;-63
2022/10/25 04:04:25;;;;;;;;;;;13.00;99.90;;;;;;6308313;22;20324;-63
2022/10/25 04:06:54;;;;;;;;;;;13.10;99.90;;;;;;6308087;22;19922;-63
2022/10/25 04:09:20;;;;;;;;;;;13.10;99.90;;;;;;6307976;22;19915;-63
2022/10/25 04:11:46;;;;;;;;;;;13.10;99.90;;;;;;6307841;22;20247;-63
2022/10/25 04:14:12;;;;;;;;;;;13.20;99.90;;;;;;6307422;22;19945;-63
2022/10/25 04:16:41;;;;;;;;;;;13.10;99.90;;;;;;6307986;22;19915;-63
2022/10/25 04:19:07;;;;;;;;;;;13.00;99.90;;;;;;6280452;22;19915;-63
2022/10/25 04:21:32;;;;;;;;;;;13.00;99.90;;;;;;6278645;22;19919;-63
2022/10/25 04:23:58;;;;;;;;;;;13.00;99.90;;;;;;6308165;22;19918;-63
2022/10/25 04:26:23;;;;;;;;;;;13.00;99.90;;;;;;6308135;22;20032;-63
2022/10/25 04:28:50;;;;;;;;;;;13.10;99.90;;;;;;6307874;22;20216;-63
2022/10/25 04:31:16;;;;;;;;;;;13.10;99.90;;;;;;6308214;22;19961;-62
2022/10/25 04:33:41;;;;;;;;;;;13.10;99.90;;;;;;6308155;22;20270;-63
2022/10/25 04:36:07;;;;;;;;;;;13.10;99.90;;;;;;6308167;22;19990;-63
2022/10/25 04:38:42;;;;;;;;;;;13.10;99.90;;;;;;6306170;22;19946;-63
2022/10/25 04:41:07;;;;;;;;;;;13.20;99.90;;;;;;6305675;22;20316;-63
2022/10/25 04:43:33;;;;;;;;;;;13.10;99.90;;;;;;6306726;22;19919;-63
2022/10/25 04:46:02;;;;;;;;;;;13.20;99.90;;;;;;6306860;22;20278;-63
2022/10/25 04:48:28;;;;;;;;;;;13.20;99.90;;;;;;6305566;22;19927;-63
2022/10/25 04:50:54;;;;;;;;;;;13.10;99.90;;;;;;6253954;22;20274;-63
2022/10/25 04:53:21;;;;;;;;;;;13.20;99.90;;;;;;6305951;22;19961;-64
2022/10/25 04:55:57;;;;;;;;;;;13.10;99.90;;;;;;6307087;22;19964;-63
2022/10/25 04:58:23;;;;;;;;;;;13.10;99.90;;;;;;6306125;22;20373;-63
2022/10/25 05:00:49;;;;;;;;;;;13.10;99.90;;;;;;6308257;22;19968;-63
2022/10/25 05:03:16;;;;;;;;;;;13.10;99.90;;;;;;6308463;22;19915;-63
2022/10/25 05:05:41;;;;;;;;;;;13.10;99.90;;;;;;6308582;22;19922;-63
2022/10/25 05:08:07;;;;;;;;;;;13.10;99.90;;;;;;6308520;22;19983;-64
2022/10/25 05:10:32;;;;;;;;;;;13.00;99.90;;;;;;6308941;22;19921;-63
2022/10/25 05:12:58;;;;;;;;;;;13.00;99.90;;;;;;6309458;22;20332;-63
2022/10/25 05:15:23;;;;;;;;;;;12.90;99.90;;;;;;6309615;22;19922;-63
2022/10/25 05:17:49;;;;;;;;;;;12.90;99.90;;;;;;6309262;22;20335;-64
2022/10/25 05:20:14;;;;;;;;;;;12.90;99.90;;;;;;6310021;22;19988;-64
2022/10/25 05:22:40;;;;;;;;;;;12.80;99.90;;;;;;6306057;22;20236;-64
2022/10/25 05:25:06;;;;;;;;;;;12.80;99.90;;;;;;6309437;22;19979;-63
2022/10/25 05:27:35;;;;;;;;;;;12.80;99.90;;;;;;6309901;22;19915;-63
2022/10/25 05:30:00;;;;;;;;;;;12.70;99.90;;;;;;6309721;22;19960;-63
2022/10/25 05:32:26;;;;;;;;;;;12.70;99.90;;;;;;6309372;22;19915;-63
2022/10/25 05:34:52;;;;;;;;;;;12.70;99.90;;;;;;6309724;22;19915;-63
2022/10/25 05:37:17;;;;;;;;;;;12.70;99.90;;;;;;6282331;22;19915;-63
2022/10/25 05:39:43;;;;;;;;;;;12.70;99.90;;;;;;6309424;22;19915;-63
2022/10/25 05:42:11;;;;;;;;;;;12.70;99.90;;;;;;6308243;22;19922;-63
2022/10/25 05:44:40;;;;;;;;;;;12.70;99.90;;;;;;6309439;22;20286;-63
2022/10/25 05:47:06;;;;;;;;;;;12.70;99.90;;;;;;6281959;22;19968;-74
2022/10/25 05:49:38;;;;;;;;;;;12.70;99.90;;;;;;6309560;22;19914;-74
2022/10/25 05:52:09;;;;;;;;;;;12.70;99.90;;;;;;6309322;22;20036;-73
2022/10/25 05:54:35;;;;;;;;;;;12.70;99.90;;;;;;6308426;22;20247;-73
2022/10/25 05:57:03;;;;;;;;;;;12.70;99.90;;;;;;6282150;22;20324;-73
2022/10/25 05:59:29;;;;;;;;;;;12.70;99.90;;;;;;6309401;22;19915;-73
2022/10/25 06:01:54;;;;;;;;;;;12.70;99.90;;;;;;6309251;22;20367;-73
2022/10/25 06:04:20;;;;;;;;;;;12.70;99.90;;;;;;6309099;22;19914;-73
2022/10/25 06:06:51;;;;;;;;;;;12.70;99.90;;;;;;6307375;22;19915;-72
2022/10/25 06:09:16;;;;;;;;;;;12.60;99.90;;;;;;6281795;22;20320;-73
2022/10/25 06:11:43;;;;;;;;;;;12.60;99.90;;;;;;6309216;22;19977;-73
2022/10/25 06:14:10;;;;;;;;;;;12.60;99.90;;;;;;6276416;22;19920;-74
2022/10/25 06:16:36;;;;;;;;;;;12.60;99.90;;;;;;6276252;22;19916;-74
2022/10/25 06:19:01;;;;;;;;;;;12.50;99.90;;;;;;6278343;22;19965;-73
2022/10/25 06:21:29;;;;;;;;;;;12.70;99.90;;;;;;6278371;22;19927;-74
2022/10/25 06:24:05;;;;;;;;;;;12.70;99.90;;;;;;6276596;22;19915;-73
2022/10/25 06:26:33;;;;;;;;;;;12.70;99.90;;;;;;6278358;22;20222;-74
2022/10/25 06:29:01;;;;;;;;;;;12.70;99.90;;;;;;6278297;22;19915;-73
2022/10/25 06:31:27;;;;;;;;;;;12.70;99.90;;;;;;6276492;22;19916;-73
2022/10/25 06:33:54;;;;;;;;;;;12.70;99.90;;;;;;6278567;22;20250;-72
2022/10/25 06:36:22;;;;;;;;;;;12.70;99.90;;;;;;6278391;22;19915;-73
2022/10/25 06:38:49;;;;;;;;;;;12.70;99.90;;;;;;6275675;22;19915;-63
2022/10/25 06:41:21;;;;;;;;;;;12.70;99.90;;;;;;6278066;22;19959;-63
2022/10/25 06:43:52;;;;;;;;;;;12.70;99.90;;;;;;6278307;22;19986;-72
2022/10/25 06:46:24;;;;;;;;;;;12.60;99.90;;;;;;6272982;22;19922;-73
2022/10/25 06:48:51;;;;;;;;;;;12.60;99.90;;;;;;6278200;22;20322;-72
2022/10/25 06:51:16;;;;;;;;;;;12.70;99.90;;;;;;6278235;22;19919;-73
2022/10/25 06:53:45;;;;;;;;;;;12.70;99.90;;;;;;6278456;22;19922;-63
2022/10/25 06:56:12;;;;;;;;;;;12.80;99.90;;;;;;6277771;22;19982;-63
2022/10/25 06:58:37;;;;;;;;;;;12.80;99.90;;;;;;6275470;22;19998;-63
2022/10/25 07:01:07;;;;;;;;;;;12.80;99.90;;;;;;6275978;22;19943;-63
2022/10/25 07:03:39;;;;;;;;;;;12.90;99.90;;;;;;6277406;22;19915;-63
2022/10/25 07:06:09;;;;;;;;;;;12.90;99.90;;;;;;6276750;22;19915;-74
2022/10/25 07:08:38;;;;;;;;;;;12.90;99.90;;;;;;6277697;22;20457;-73
2022/10/25 07:11:14;;;;;;;;;;;12.90;99.90;;;;;;6277916;22;19915;-74
2022/10/25 07:13:39;;;;;;;;;;;13.00;99.90;;;;;;6296048;22;19968;-72
2022/10/25 07:16:08;;;;;;;;;;;13.10;99.90;;;;;;6307417;22;19915;-74
2022/10/25 07:18:35;;;;;;;;;;;13.20;99.90;;;;;;6307302;22;19915;-75
2022/10/25 07:21:01;;;;;;;;;;;13.30;99.90;;;;;;6306789;22;20527;-74
2022/10/25 07:23:29;;;;;;;;;;;13.30;99.90;;;;;;6306034;22;20305;-73
2022/10/25 07:25:58;;;;;;;;;;;13.30;99.90;;;;;;6306298;22;19920;-74
2022/10/25 07:28:27;;;;;;;;;;;13.30;99.90;;;;;;6306862;22;19986;-73
2022/10/25 07:30:54;;;;;;;;;;;13.40;99.90;;;;;;6307360;22;20285;-72
2022/10/25 07:33:31;;;;;;;;;;;13.40;99.90;;;;;;6308308;22;19915;-73
2022/10/25 07:35:57;;;;;;;;;;;13.50;99.90;;;;;;6308213;22;19922;-73
2022/10/25 07:38:22;;;;;;;;;;;13.50;99.90;;;;;;6308011;22;19923;-73
2022/10/25 07:40:53;;;;;;;;;;;13.60;99.90;;;;;;6308181;22;19972;-73
2022/10/25 07:43:19;;;;;;;;;;;13.60;99.90;;;;;;6308580;22;20043;-72
2022/10/25 07:45:44;;;;;;;;;;;13.70;99.90;;;;;;6308544;22;19953;-63
2022/10/25 07:48:10;;;;;;;;;;;13.80;99.90;;;;;;6305146;22;20294;-63
2022/10/25 07:50:39;;;;;;;;;;;13.90;99.90;;;;;;6281767;22;19919;-63
2022/10/25 07:53:05;;;;;;;;;;;13.90;99.90;;;;;;6307063;22;19915;-63
2022/10/25 07:55:31;;;;;;;;;;;14.00;99.90;;;;;;6308526;22;19961;-63
2022/10/25 07:58:03;;;;;;;;;;;14.00;99.90;;;;;;6308530;22;19914;-63
2022/10/25 08:00:34;;;;;;;;;;;14.00;99.90;;;;;;6306921;22;19965;-64
2022/10/25 08:03:09;;;;;;;;;;;14.10;99.90;;;;;;6307910;22;19919;-63
2022/10/25 08:05:45;;;;;;;;;;;14.10;99.90;;;;;;6308113;22;19990;-64
2022/10/25 08:08:12;;;;;;;;;;;14.20;99.90;;;;;;6280683;22;20032;-64
2022/10/25 08:10:37;;;;;;;;;;;14.20;99.90;;;;;;6308267;22;19915;-64
2022/10/25 08:13:03;;;;;;;;;;;14.30;99.90;;;;;;6308152;22;19995;-64
2022/10/25 08:15:30;;;;;;;;;;;14.40;99.90;;;;;;6308420;22;19926;-64
2022/10/25 08:18:00;;;;;;;;;;;14.50;99.90;;;;;;6308279;22;20001;-64
2022/10/25 08:20:27;;;;;;;;;;;14.50;99.90;;;;;;6308230;22;19938;-63
2022/10/25 08:22:59;;;;;;;;;;;14.60;99.90;;;;;;6280545;22;19919;-63
2022/10/25 08:25:28;;;;;;;;;;;14.60;99.90;;;;;;6307969;22;20370;-63
2022/10/25 08:27:54;;;;;;;;;;;14.60;99.90;;;;;;6308014;22;19950;-63
2022/10/25 08:30:22;;;;;;;;;;;14.70;99.90;;;;;;6308289;22;19915;-63
2022/10/25 08:32:49;;;;;;;;;;;14.80;99.90;;;;;;6307940;22;19945;-64
2022/10/25 08:35:14;;;;;;;;;;;14.90;99.90;;;;;;6310241;22;19922;-64
2022/10/25 08:37:40;;;;;;;;;;;14.90;99.90;;;;;;6308327;22;19915;-63
2022/10/25 08:40:07;;;;;;;;;;;14.80;99.90;;;;;;6282902;22;19942;-63
2022/10/25 08:42:42;;;;;;;;;;;14.80;99.90;;;;;;6282579;22;19961;-63
2022/10/25 08:45:15;;;;;;;;;;;14.80;99.90;;;;;;6310254;22;19968;-74
2022/10/25 08:47:42;;;;;;;;;;;15.00;99.90;;;;;;6282642;22;19964;-73
2022/10/25 08:50:15;;;;;;;;;;;15.40;99.90;;;;;;6282844;22;20297;-73
2022/10/25 08:52:49;;;;;;;;;;;15.60;99.90;;;;;;6310374;22;19984;-72
2022/10/25 08:55:42;;;;;;;;;;;15.90;99.90;;;;;;6310274;22;20063;-73
2022/10/25 08:58:22;;;;;;;;;;;16.00;99.90;;;;;;6155525;23;19932;-73
2022/10/25 09:00:49;;;;;;;;;;;15.90;99.90;;;;;;6155519;23;19917;-72
2022/10/25 09:03:16;;;;;;;;;;;15.80;99.90;;;;;;6155076;23;20000;-73
2022/10/25 09:06:01;;;;;;;;;;;15.70;99.90;;;;;;6154004;23;20055;-72
2022/10/25 09:08:39;;;;;;;;;;;15.70;99.90;;;;;;6154694;23;19975;-72
2022/10/25 09:11:22;;;;;;;;;;;15.80;99.90;;;;;;6155572;23;20219;-71
2022/10/25 09:13:58;;;;;;;;;;;15.90;99.90;;;;;;6153422;23;19921;-72
2022/10/25 09:16:31;;;;;;;;;;;16.10;99.90;;;;;;6155311;23;19917;-72
2022/10/25 09:18:56;;;;;;;;;;;16.20;99.90;;;;;;6155524;23;19916;-73
2022/10/25 09:21:58;;;;;;;;;;;16.40;99.90;;;;;;6129914;23;19920;-72
2022/10/25 09:24:27;;;;;;;;;;;16.50;99.90;;;;;;6036290;23;19917;-72
2022/10/25 09:26:58;;;;;;;;;;;16.70;99.90;;;;;;6036367;23;19929;-73
2022/10/25 09:29:33;;;;;;;;;;;16.80;99.90;;;;;;6037002;23;19973;-72
2022/10/25 09:31:59;;;;;;;;;;;16.80;99.90;;;;;;6036976;23;19925;-72
2022/10/25 09:34:31;;;;;;;;;;;16.60;99.90;;;;;;6067983;23;19916;-72
2022/10/25 09:37:10;;;;;;;;;;;16.60;99.90;;;;;;6183573;23;19916;-72
2022/10/25 09:39:40;;;;;;;;;;;16.70;99.90;;;;;;6184904;23;19952;-73
2022/10/25 09:42:12;;;;;;;;;;;16.80;99.90;;;;;;6184981;23;20373;-73
2022/10/25 09:44:40;;;;;;;;;;;16.90;99.90;;;;;;6185015;23;19948;-73
2022/10/25 09:47:24;;;;;;;;;;;16.80;99.90;;;;;;6184688;23;19986;-73
2022/10/25 09:50:22;;;;;;;;;;;16.70;99.90;;;;;;6185007;23;19987;-72
2022/10/25 09:53:08;;;;;;;;;;;16.60;99.90;;;;;;6153817;23;19916;-73
2022/10/25 09:55:36;;;;;;;;;;;16.50;99.90;;;;;;6184917;23;19916;-73
2022/10/25 09:58:08;;;;;;;;;;;16.40;99.90;;;;;;6221000;22;19915;-73
2022/10/25 10:00:38;;;;;;;;;;;16.30;99.90;;;;;;6278825;22;19915;-73
2022/10/25 10:03:07;;;;;;;;;;;16.30;99.90;;;;;;6278357;22;19919;-73
2022/10/25 10:05:33;;;;;;;;;;;16.20;99.90;;;;;;6278415;22;19915;-72
2022/10/25 10:07:59;;;;;;;;;;;16.20;99.90;;;;;;6278743;22;20248;-73
2022/10/25 10:10:29;;;;;;;;;;;16.20;99.90;;;;;;6278584;22;19937;-73
2022/10/25 10:13:04;;;;;;;;;;;16.20;99.90;;;;;;6276594;22;19926;-74
2022/10/25 10:15:31;;;;;;;;;;;16.20;99.90;;;;;;6277545;22;20327;-73
2022/10/25 10:18:15;;;;;;;;;;;16.20;99.90;;;;;;6278600;22;19915;-73
2022/10/25 10:20:54;;;;;;;;;;;16.20;99.90;;;;;;6278497;22;19921;-73
2022/10/25 10:23:19;;;;;;;;;;;16.20;99.90;;;;;;6278711;22;19988;-73
2022/10/25 10:25:45;;;;;;;;;;;16.20;99.90;;;;;;6276442;22;20328;-73
2022/10/25 10:28:11;;;;;;;;;;;16.30;99.90;;;;;;6278392;22;19919;-73
2022/10/25 10:30:37;;;;;;;;;;;16.30;99.90;;;;;;6278499;22;19919;-73
2022/10/25 10:33:08;;;;;;;;;;;16.40;99.90;;;;;;6278012;22;19950;-73
2022/10/25 10:35:37;;;;;;;;;;;16.40;99.90;;;;;;6278126;22;20332;-73
2022/10/25 10:38:23;;;;;;;;;;;16.40;99.90;;;;;;6278377;22;19915;-74
2022/10/25 10:40:53;;;;;;;;;;;16.40;99.90;;;;;;6278277;22;19915;-73
2022/10/25 10:43:24;;;;;;;;;;;16.30;99.90;;;;;;6276480;22;19935;-73
2022/10/25 10:45:50;;;;;;;;;;;16.30;99.90;;;;;;6277037;22;19922;-73
2022/10/25 10:48:21;;;;;;;;;;;16.20;99.90;;;;;;6277792;22;19957;-73
2022/10/25 10:50:50;;;;;;;;;;;16.30;99.90;;;;;;6277811;22;19915;-73
2022/10/25 10:53:20;;;;;;;;;;;16.20;99.90;;;;;;6278169;22;19922;-73
2022/10/25 10:55:51;;;;;;;;;;;16.20;99.90;;;;;;6278119;22;19919;-73
2022/10/25 10:58:18;;;;;;;;;;;16.20;99.90;;;;;;6278168;22;19947;-73
2022/10/25 11:00:49;;;;;;;;;;;16.20;99.90;;;;;;6276261;22;19946;-73
2022/10/25 11:03:33;;;;;;;;;;;16.30;99.90;;;;;;6277822;22;19977;-74
2022/10/25 11:05:59;;;;;;;;;;;16.40;99.90;;;;;;6275945;22;19919;-73
2022/10/25 11:08:24;;;;;;;;;;;16.50;99.90;;;;;;6276228;22;20351;-73
2022/10/25 11:10:50;;;;;;;;;;;16.50;99.90;;;;;;6275978;22;19921;-74
2022/10/25 11:13:19;;;;;;;;;;;16.50;99.90;;;;;;6291320;22;20336;-74
2022/10/25 11:15:50;;;;;;;;;;;16.50;99.90;;;;;;6308868;22;19960;-73
2022/10/25 11:18:15;;;;;;;;;;;16.50;99.90;;;;;;6281123;22;19967;-74
2022/10/25 11:20:44;;;;;;;;;;;16.40;99.90;;;;;;6281137;22;20331;-74
2022/10/25 11:23:16;;;;;;;;;;;16.40;99.90;;;;;;6308813;22;20331;-74
2022/10/25 11:25:47;;;;;;;;;;;16.50;99.90;;;;;;6255908;22;19915;-74
2022/10/25 11:28:13;;;;;;;;;;;16.50;99.90;;;;;;6308424;22;19950;-73
2022/10/25 11:30:57;;;;;;;;;;;16.50;99.90;;;;;;6308819;22;19919;-64
2022/10/25 11:33:33;;;;;;;;;;;16.50;99.90;;;;;;6308308;22;19993;-64
2022/10/25 11:36:17;;;;;;;;;;;16.40;99.90;;;;;;6308474;22;19926;-64
2022/10/25 11:38:57;;;;;;;;;;;16.60;99.90;;;;;;6280952;22;20368;-64
2022/10/25 11:41:23;;;;;;;;;;;16.70;99.90;;;;;;6308098;22;19964;-64
2022/10/25 11:44:04;;;;;;;;;;;16.80;99.90;;;;;;6308614;22;19997;-64
2022/10/25 11:46:48;;;;;;;;;;;16.90;99.90;;;;;;6308624;22;19922;-64
2022/10/25 11:49:32;;;;;;;;;;;16.90;99.90;;;;;;6308655;22;19915;-64
2022/10/25 11:51:57;;;;;;;;;;;16.80;99.90;;;;;;6308624;22;19922;-64
2022/10/25 11:54:23;;;;;;;;;;;16.90;99.90;;;;;;6308527;22;19915;-64
2022/10/25 11:57:10;;;;;;;;;;;16.80;99.90;;;;;;6306391;22;19919;-64
2022/10/25 11:59:59;;;;;;;;;;;16.80;99.90;;;;;;6308577;22;19996;-64
2022/10/25 12:02:31;;;;;;;;;;;16.80;99.90;;;;;;6288444;22;20221;-64
2022/10/25 12:05:15;;;;;;;;;;;16.90;99.90;;;;;;6308031;22;20379;-64
2022/10/25 12:07:46;;;;;;;;;;;17.00;99.90;;;;;;6308179;22;20243;-64
2022/10/25 12:10:30;;;;;;;;;;;17.00;99.90;;;;;;6308106;22;20328;-64
2022/10/25 12:13:03;;;;;;;;;;;17.10;99.90;;;;;;6308054;22;19919;-64
2022/10/25 12:15:39;;;;;;;;;;;17.10;99.90;;;;;;6307917;22;20385;-64
2022/10/25 12:18:08;;;;;;;;;;;17.10;99.90;;;;;;6306259;22;19921;-64
2022/10/25 12:20:34;;;;;;;;;;;16.90;99.90;;;;;;6308433;22;19915;-64
2022/10/25 12:23:00;;;;;;;;;;;16.80;99.90;;;;;;6280749;22;19919;-64
2022/10/25 12:25:38;;;;;;;;;;;16.70;99.90;;;;;;6308435;22;19915;-65
2022/10/25 12:28:08;;;;;;;;;;;16.60;99.90;;;;;;6308444;22;19915;-65
2022/10/25 12:30:34;;;;;;;;;;;16.60;99.90;;;;;;6308533;22;19964;-64
2022/10/25 12:33:03;;;;;;;;;;;16.60;99.90;;;;;;6280695;22;19915;-64
2022/10/25 12:35:30;;;;;;;;;;;16.60;99.90;;;;;;6308394;22;19919;-64
2022/10/25 12:38:03;;;;;;;;;;;16.50;99.90;;;;;;6280717;22;19949;-64
2022/10/25 12:40:31;;;;;;;;;;;16.50;99.90;;;;;;6307831;22;19971;-64
2022/10/25 12:43:09;;;;;;;;;;;16.60;99.90;;;;;;6308256;22;20001;-64
2022/10/25 12:46:04;;;;;;;;;;;16.70;99.90;;;;;;6308303;22;19915;-64
2022/10/25 12:48:39;;;;;;;;;;;16.80;99.90;;;;;;6274542;22;19922;-64
2022/10/25 12:51:20;;;;;;;;;;;16.80;99.90;;;;;;6308238;22;20225;-64
2022/10/25 12:53:52;;;;;;;;;;;16.90;99.90;;;;;;6280680;22;19915;-64
2022/10/25 12:56:32;;;;;;;;;;;16.90;99.90;;;;;;6308194;22;19922;-74
2022/10/25 12:59:03;;;;;;;;;;;17.00;99.90;;;;;;6307786;22;20389;-74
2022/10/25 13:01:41;;;;;;;;;;;17.00;99.90;;;;;;6308258;22;19923;-74
2022/10/25 13:04:10;;;;;;;;;;;17.10;99.90;;;;;;6280535;22;19915;-74
2022/10/25 13:06:36;;;;;;;;;;;17.20;99.90;;;;;;6280495;22;19914;-73
2022/10/25 13:09:09;;;;;;;;;;;17.40;99.90;;;;;;6308256;22;19919;-75
2022/10/25 13:11:40;;;;;;;;;;;17.40;99.90;;;;;;6307783;22;19957;-73
2022/10/25 13:14:20;;;;;;;;;;;17.60;99.90;;;;;;6280589;22;19986;-73
2022/10/25 13:16:46;;;;;;;;;;;17.70;99.90;;;;;;6280491;22;19915;-72
2022/10/25 13:19:25;;;;;;;;;;;17.80;99.90;;;;;;6280381;22;19915;-73
2022/10/25 13:21:52;;;;;;;;;;;17.90;99.90;;;;;;6309027;22;19969;-72
2022/10/25 13:24:38;;;;;;;;;;;17.80;99.90;;;;;;6309954;22;19915;-73
2022/10/25 13:27:17;;;;;;;;;;;17.80;99.90;;;;;;6309955;22;19915;-75
2022/10/25 13:29:43;;;;;;;;;;;17.80;99.90;;;;;;6310021;22;19957;-73
2022/10/25 13:32:14;;;;;;;;;;;17.70;99.90;;;;;;6309958;22;19918;-72
2022/10/25 13:34:40;;;;;;;;;;;17.70;99.90;;;;;;6309591;22;20355;-72
2022/10/25 13:37:25;;;;;;;;;;;17.70;99.90;;;;;;6309926;22;19915;-72
2022/10/25 13:39:53;;;;;;;;;;;17.60;99.90;;;;;;6309394;22;19945;-72
2022/10/25 13:42:18;;;;;;;;;;;17.60;99.90;;;;;;6309406;22;20382;-73
2022/10/25 13:45:16;;;;;;;;;;;17.50;99.90;;;;;;6309435;22;19918;-73
2022/10/25 13:47:46;;;;;;;;;;;17.50;99.90;;;;;;6224437;22;19915;-73
2022/10/25 13:50:18;;;;;;;;;;;17.40;99.90;;;;;;6309839;22;19994;-73
2022/10/25 13:52:52;;;;;;;;;;;17.30;99.90;;;;;;6309336;22;19951;-73
2022/10/25 13:55:20;;;;;;;;;;;17.20;99.90;;;;;;6309723;22;19990;-73
2022/10/25 13:57:48;;;;;;;;;;;17.20;99.90;;;;;;6309740;22;19922;-73
2022/10/25 14:00:21;;;;;;;;;;;17.30;99.90;;;;;;6281975;22;20036;-73
2022/10/25 14:03:05;;;;;;;;;;;17.20;99.90;;;;;;6281914;22;20343;-73
2022/10/25 14:05:49;;;;;;;;;;;17.20;99.90;;;;;;6282068;22;19915;-73
2022/10/25 14:08:29;;;;;;;;;;;17.20;99.90;;;;;;6309299;22;19915;-74
2022/10/25 14:10:59;;;;;;;;;;;17.30;99.90;;;;;;6309686;22;19984;-74
2022/10/25 14:13:35;;;;;;;;;;;17.40;99.90;;;;;;6309203;22;19926;-72
2022/10/25 14:16:02;;;;;;;;;;;17.40;99.90;;;;;;6281852;22;19915;-73
2022/10/25 14:18:28;;;;;;;;;;;17.30;99.90;;;;;;6281741;22;19953;-73
2022/10/25 14:20:57;;;;;;;;;;;17.20;99.90;;;;;;6308994;22;19914;-73
2022/10/25 14:23:26;;;;;;;;;;;17.00;99.90;;;;;;6309547;22;19915;-73
2022/10/25 14:25:56;;;;;;;;;;;16.90;99.90;;;;;;6307639;22;19915;-74
2022/10/25 14:28:25;;;;;;;;;;;16.80;99.90;;;;;;6309487;22;20292;-75
2022/10/25 14:30:58;;;;;;;;;;;16.70;99.90;;;;;;6309315;22;19940;-73
2022/10/25 14:33:25;;;;;;;;;;;16.70;99.90;;;;;;6281599;22;19915;-75